createdAt,value
2023-05-25T00:02:06.291Z,96627.75
2023-05-25T00:04:34.756Z,96632.72
2023-05-25T00:07:02.426Z,96640.34
2023-05-25T00:09:31.280Z,96648.06
2023-05-25T00:11:59.785Z,96648.63
2023-05-25T00:14:27.364Z,96631.28
2023-05-25T00:16:55.274Z,96627.25
2023-05-25T00:19:23.211Z,96635.25
2023-05-25T00:21:51.133Z,96635.78
2023-05-25T00:24:18.678Z,96627.59
2023-05-25T00:26:47.537Z,96628.03
2023-05-25T00:29:15.032Z,96633.84
2023-05-25T00:31:42.559Z,96627.63
2023-05-25T00:34:10.181Z,96626.84
2023-05-25T00:36:37.758Z,96609.13
2023-05-25T00:39:05.318Z,96606.53
2023-05-25T00:41:34.806Z,96604.59
2023-05-25T00:44:03.925Z,96603.66
2023-05-25T00:46:34.290Z,96610.53
2023-05-25T00:49:01.963Z,96614.28
2023-05-25T00:51:32.930Z,96616.50
2023-05-25T00:54:00.564Z,96615.94
2023-05-25T00:56:33.633Z,96613.13
2023-05-25T00:59:07.503Z,96607.81
2023-05-25T01:01:40.182Z,96611.06
2023-05-25T01:04:09.953Z,96604.72
2023-05-25T01:06:40.135Z,96606.13
2023-05-25T01:09:10.931Z,96602.06
2023-05-25T01:11:43.092Z,96607.22
2023-05-25T01:14:12.105Z,96611.22
2023-05-25T01:16:40.632Z,96603.06
2023-05-25T01:19:08.243Z,96609.28
2023-05-25T01:21:43.300Z,96603.03
2023-05-25T01:24:17.514Z,96603.00
2023-05-25T01:26:49.552Z,96606.88
2023-05-25T01:29:19.957Z,96605.25
2023-05-25T01:31:49.009Z,96608.41
2023-05-25T01:34:17.941Z,96605.41
2023-05-25T01:36:46.895Z,96611.41
2023-05-25T01:39:14.490Z,96608.28
2023-05-25T01:41:41.995Z,96606.84
2023-05-25T01:44:09.630Z,96602.25
2023-05-25T01:46:39.879Z,96600.88
2023-05-25T01:49:17.650Z,96603.53
2023-05-25T01:51:55.851Z,96609.50
2023-05-25T01:54:30.109Z,96611.25
2023-05-25T01:57:01.292Z,96600.44
2023-05-25T01:59:30.023Z,96591.41
2023-05-25T02:01:59.218Z,96603.22
2023-05-25T02:04:27.316Z,96596.47
2023-05-25T02:06:56.530Z,96602.75
2023-05-25T02:09:24.043Z,96605.56
2023-05-25T02:11:51.552Z,96604.22
2023-05-25T02:14:19.195Z,96608.41
2023-05-25T02:16:46.988Z,96611.16
2023-05-25T02:19:15.107Z,96607.25
2023-05-25T02:21:42.855Z,96608.38
2023-05-25T02:24:11.765Z,96594.84
2023-05-25T02:26:40.087Z,96595.53
2023-05-25T02:29:07.742Z,96594.00
2023-05-25T02:31:35.618Z,96590.94
2023-05-25T02:34:03.170Z,96585.53
2023-05-25T02:36:31.828Z,96587.53
2023-05-25T02:38:59.376Z,96592.59
2023-05-25T02:41:28.263Z,96592.00
2023-05-25T02:43:55.839Z,96594.22
2023-05-25T02:46:23.665Z,96595.34
2023-05-25T02:48:51.854Z,96599.94
2023-05-25T02:51:19.480Z,96598.59
2023-05-25T02:53:47.036Z,96606.69
2023-05-25T02:56:14.531Z,96608.59
2023-05-25T02:58:43.511Z,96606.72
2023-05-25T03:01:18.139Z,96611.78
2023-05-25T03:03:46.940Z,96614.50
2023-05-25T03:06:16.004Z,96614.28
2023-05-25T03:08:43.549Z,96614.00
2023-05-25T03:11:11.041Z,96623.06
2023-05-25T03:13:38.533Z,96619.59
2023-05-25T03:16:08.108Z,96620.66
2023-05-25T03:18:35.613Z,96625.72
2023-05-25T03:21:03.113Z,96625.97
2023-05-25T03:23:30.640Z,96629.56
2023-05-25T03:25:58.143Z,96630.41
2023-05-25T03:28:25.845Z,96634.06
2023-05-25T03:30:53.506Z,96632.78
2023-05-25T03:33:22.380Z,96627.38
2023-05-25T03:35:49.912Z,96625.97
2023-05-25T03:38:17.432Z,96625.34
2023-05-25T03:40:44.953Z,96620.59
2023-05-25T03:43:12.444Z,96620.19
2023-05-25T03:45:39.960Z,96624.72
2023-05-25T03:48:07.752Z,96625.34
2023-05-25T03:50:36.615Z,96638.69
2023-05-25T03:53:04.133Z,96624.53
2023-05-25T03:55:32.370Z,96627.69
2023-05-25T03:57:59.863Z,96632.91
2023-05-25T04:00:27.726Z,96631.41
2023-05-25T04:02:56.854Z,96633.00
2023-05-25T04:05:24.568Z,96639.22
2023-05-25T04:07:53.752Z,96638.00
2023-05-25T04:10:21.313Z,96631.94
2023-05-25T04:12:48.948Z,96632.47
2023-05-25T04:15:17.129Z,96641.88
2023-05-25T04:17:44.715Z,96646.94
2023-05-25T04:20:12.609Z,96642.94
2023-05-25T04:22:40.160Z,96642.09
2023-05-25T04:25:10.390Z,96649.69
2023-05-25T04:27:37.900Z,96650.38
2023-05-25T04:30:06.513Z,96649.13
2023-05-25T04:32:37.311Z,96652.72
2023-05-25T04:35:05.513Z,96644.75
2023-05-25T04:37:33.359Z,96653.75
2023-05-25T04:40:01.703Z,96651.31
2023-05-25T04:42:31.398Z,96649.38
2023-05-25T04:44:59.460Z,96646.41
2023-05-25T04:47:27.034Z,96655.75
2023-05-25T04:49:54.565Z,96650.31
2023-05-25T04:52:22.068Z,96657.75
2023-05-25T04:54:49.555Z,96657.22
2023-05-25T04:57:17.180Z,96654.34
2023-05-25T04:59:46.003Z,96661.69
2023-05-25T05:02:13.577Z,96658.47
2023-05-25T05:04:41.566Z,96659.75
2023-05-25T05:07:09.116Z,96664.47
2023-05-25T05:09:36.644Z,96659.88
2023-05-25T05:12:04.280Z,96664.94
2023-05-25T05:14:31.798Z,96663.16
2023-05-25T05:17:00.666Z,96659.34
2023-05-25T05:19:29.206Z,96663.44
2023-05-25T05:21:56.786Z,96662.28
2023-05-25T05:24:24.593Z,96660.25
2023-05-25T05:26:58.335Z,96668.94
2023-05-25T05:29:26.815Z,96672.63
2023-05-25T05:31:56.214Z,96673.72
2023-05-25T05:34:25.335Z,96685.41
2023-05-25T05:36:58.132Z,96680.00
2023-05-25T05:39:26.778Z,96678.53
2023-05-25T05:41:54.678Z,96690.78
2023-05-25T05:44:24.079Z,96685.13
2023-05-25T05:46:59.825Z,96676.94
2023-05-25T05:49:28.763Z,96675.19
2023-05-25T05:51:56.370Z,96677.66
2023-05-25T05:54:24.449Z,96684.00
2023-05-25T05:56:52.462Z,96687.63
2023-05-25T05:59:22.106Z,96689.75
2023-05-25T06:01:49.694Z,96680.56
2023-05-25T06:04:19.543Z,96691.72
2023-05-25T06:06:48.405Z,96673.50
2023-05-25T06:09:15.947Z,96682.81
2023-05-25T06:11:43.429Z,96671.34
2023-05-25T06:14:11.276Z,96679.91
2023-05-25T06:16:38.877Z,96675.03
2023-05-25T06:19:06.430Z,96678.97
2023-05-25T06:21:33.951Z,96689.16
2023-05-25T06:24:02.822Z,96678.53
2023-05-25T06:26:30.404Z,96681.06
2023-05-25T06:28:58.442Z,96677.78
2023-05-25T06:31:26.350Z,96672.09
2023-05-25T06:33:53.885Z,96682.16
2023-05-25T06:36:21.760Z,96679.84
2023-05-25T06:38:49.271Z,96680.59
2023-05-25T06:41:19.679Z,96681.59
2023-05-25T06:43:47.178Z,96693.38
2023-05-25T06:46:18.241Z,96695.09
2023-05-25T06:48:46.312Z,96687.53
2023-05-25T06:51:13.942Z,96684.09
2023-05-25T06:53:41.477Z,96701.63
2023-05-25T06:56:08.983Z,96681.81
2023-05-25T06:58:37.942Z,96682.38
2023-05-25T07:01:06.063Z,96695.06
2023-05-25T07:03:33.659Z,96698.75
2023-05-25T07:06:01.269Z,96697.28
2023-05-25T07:08:28.793Z,96697.75
2023-05-25T07:10:56.344Z,96698.09
2023-05-25T07:13:24.366Z,96697.75
2023-05-25T07:15:53.504Z,96702.28
2023-05-25T07:18:21.154Z,96712.81
2023-05-25T07:20:48.934Z,96717.75
2023-05-25T07:23:16.457Z,96711.34
2023-05-25T07:25:44.122Z,96708.34
2023-05-25T07:28:11.777Z,96707.69
2023-05-25T07:30:39.362Z,96709.50
2023-05-25T07:33:08.297Z,96699.63
2023-05-25T07:35:36.135Z,96699.00
2023-05-25T07:38:05.288Z,96705.84
2023-05-25T07:40:32.926Z,96715.16
2023-05-25T07:43:00.465Z,96713.34
2023-05-25T07:45:28.073Z,96714.72
2023-05-25T07:47:55.733Z,96709.63
2023-05-25T07:50:24.643Z,96715.72
2023-05-25T07:52:52.191Z,96722.09
2023-05-25T07:55:20.355Z,96722.72
2023-05-25T07:57:47.852Z,96718.22
2023-05-25T08:00:16.032Z,96715.94
2023-05-25T08:02:43.616Z,96715.53
2023-05-25T08:05:11.405Z,96723.44
2023-05-25T08:07:42.112Z,96727.81
2023-05-25T08:10:10.883Z,96714.97
2023-05-25T08:12:49.005Z,96721.75
2023-05-25T08:15:17.946Z,96729.66
2023-05-25T08:17:45.670Z,96731.19
2023-05-25T08:20:13.586Z,96726.94
2023-05-25T08:22:42.675Z,96733.91
2023-05-25T08:25:11.149Z,96730.69
2023-05-25T08:27:38.917Z,96736.88
2023-05-25T08:30:08.036Z,96718.75
2023-05-25T08:32:35.692Z,96728.81
2023-05-25T08:35:04.565Z,96718.28
2023-05-25T08:37:32.653Z,96723.84
2023-05-25T08:40:02.639Z,96733.50
2023-05-25T08:42:30.826Z,96720.16
2023-05-25T08:44:58.753Z,96728.00
2023-05-25T08:47:31.404Z,96720.94
2023-05-25T08:50:01.450Z,96728.97
2023-05-25T08:52:33.108Z,96728.31
2023-05-25T08:55:05.570Z,96724.44
2023-05-25T08:57:41.762Z,96724.78
2023-05-25T09:00:15.581Z,96725.69
2023-05-25T09:02:50.089Z,96727.50
2023-05-25T09:05:18.330Z,96717.84
2023-05-25T09:07:47.411Z,96715.53
2023-05-25T09:10:16.538Z,96725.56
2023-05-25T09:12:44.374Z,96723.72
2023-05-25T09:15:13.119Z,96731.47
2023-05-25T09:17:41.753Z,96734.50
2023-05-25T09:20:13.613Z,96738.75
2023-05-25T09:22:41.865Z,96729.44
2023-05-25T09:25:12.464Z,96726.16
2023-05-25T09:27:43.078Z,96731.56
2023-05-25T09:30:11.193Z,96733.31
2023-05-25T09:32:39.097Z,96730.78
2023-05-25T09:35:10.925Z,96722.44
2023-05-25T09:37:38.891Z,96732.59
2023-05-25T09:40:08.925Z,96724.03
2023-05-25T09:42:36.695Z,96726.97
2023-05-25T09:45:07.246Z,96730.66
2023-05-25T09:47:37.456Z,96732.47
2023-05-25T09:50:06.276Z,96724.84
2023-05-25T09:52:33.784Z,96726.66
2023-05-25T09:55:03.582Z,96731.59
2023-05-25T09:57:31.433Z,96725.38
2023-05-25T09:59:58.935Z,96738.22
2023-05-25T10:02:27.798Z,96723.88
2023-05-25T10:04:55.427Z,96728.09
2023-05-25T10:07:23.628Z,96725.34
2023-05-25T10:09:53.374Z,96735.38
2023-05-25T10:12:22.837Z,96722.06
2023-05-25T10:14:52.086Z,96730.81
2023-05-25T10:17:24.067Z,96732.06
2023-05-25T10:19:57.873Z,96738.00
2023-05-25T10:22:31.256Z,96737.59
2023-05-25T10:25:08.710Z,96730.06
2023-05-25T10:27:41.666Z,96727.50
2023-05-25T10:30:10.498Z,96737.19
2023-05-25T10:32:38.847Z,96737.19
2023-05-25T10:35:09.870Z,96752.66
2023-05-25T10:37:38.692Z,96739.06
2023-05-25T10:40:09.461Z,96731.03
2023-05-25T10:42:38.443Z,96732.59
2023-05-25T10:45:08.345Z,96739.00
2023-05-25T10:47:37.757Z,96728.25
2023-05-25T10:50:06.205Z,96721.50
2023-05-25T10:52:35.579Z,96723.69
2023-05-25T10:55:04.822Z,96728.56
2023-05-25T10:57:32.655Z,96728.69
2023-05-25T11:00:06.564Z,96722.97
2023-05-25T11:02:51.575Z,96728.19
2023-05-25T11:05:32.964Z,96721.63
2023-05-25T11:08:04.723Z,96726.09
2023-05-25T11:10:53.249Z,96724.31
2023-05-25T11:13:33.736Z,96716.38
2023-05-25T11:16:36.136Z,96725.16
2023-05-25T11:19:03.979Z,96727.25
2023-05-25T11:21:43.598Z,96723.66
2023-05-25T11:24:17.278Z,96726.13
2023-05-25T11:26:56.522Z,96723.97
2023-05-25T11:29:25.804Z,96722.00
2023-05-25T11:31:54.999Z,96724.53
2023-05-25T11:34:24.307Z,96722.38
2023-05-25T11:36:55.793Z,96732.13
2023-05-25T11:39:24.884Z,96718.78
2023-05-25T11:41:56.774Z,96720.84
2023-05-25T11:44:31.606Z,96707.22
2023-05-25T11:47:02.380Z,96704.66
2023-05-25T11:49:29.962Z,96707.09
2023-05-25T11:51:58.443Z,96715.53
2023-05-25T11:54:28.639Z,96712.13
2023-05-25T11:56:59.302Z,96710.72
2023-05-25T11:59:29.765Z,96711.34
2023-05-25T12:02:00.934Z,96704.50
2023-05-25T12:04:28.997Z,96706.38
2023-05-25T12:07:03.442Z,96711.50
2023-05-25T12:09:32.985Z,96698.34
2023-05-25T12:12:00.766Z,96693.22
2023-05-25T12:14:28.358Z,96684.50
2023-05-25T12:16:56.164Z,96696.56
2023-05-25T12:19:24.159Z,96708.00
2023-05-25T12:21:52.132Z,96686.81
2023-05-25T12:24:20.234Z,96690.47
2023-05-25T12:26:49.970Z,96684.59
2023-05-25T12:29:17.721Z,96679.38
2023-05-25T12:31:45.452Z,96682.09
2023-05-25T12:34:14.272Z,96697.03
2023-05-25T12:36:44.171Z,96683.06
2023-05-25T12:39:13.295Z,96679.28
2023-05-25T12:41:50.645Z,96690.31
2023-05-25T12:44:25.135Z,96684.47
2023-05-25T12:46:53.936Z,96685.22
2023-05-25T12:49:29.328Z,96688.22
2023-05-25T12:51:57.413Z,96684.06
2023-05-25T12:54:35.374Z,96686.47
2023-05-25T12:57:05.751Z,96684.66
2023-05-25T12:59:33.903Z,96683.75
2023-05-25T13:02:01.725Z,96678.69
2023-05-25T13:04:29.360Z,96676.97
2023-05-25T13:06:56.910Z,96681.91
2023-05-25T13:09:26.755Z,96683.78
2023-05-25T13:11:55.608Z,96685.88
2023-05-25T13:14:25.419Z,96681.28
2023-05-25T13:16:54.571Z,96678.78
2023-05-25T13:19:24.259Z,96682.25
2023-05-25T13:21:52.082Z,96678.56
2023-05-25T13:24:20.444Z,96676.97
2023-05-25T13:26:49.985Z,96682.44
2023-05-25T13:29:18.668Z,96682.72
2023-05-25T13:31:48.196Z,96683.66
2023-05-25T13:34:15.919Z,96682.78
2023-05-25T13:36:43.429Z,96671.75
2023-05-25T13:39:13.482Z,96674.75
2023-05-25T13:41:41.757Z,96673.94
2023-05-25T13:44:11.069Z,96673.47
2023-05-25T13:46:38.763Z,96677.31
2023-05-25T13:49:07.947Z,96661.16
2023-05-25T13:51:35.814Z,96660.97
2023-05-25T13:54:03.602Z,96658.53
2023-05-25T13:56:31.105Z,96649.31
2023-05-25T13:58:58.618Z,96650.88
2023-05-25T14:01:27.460Z,96655.78
2023-05-25T14:03:56.062Z,96648.28
2023-05-25T14:06:25.111Z,96656.47
2023-05-25T14:08:52.667Z,96650.94
2023-05-25T14:11:27.326Z,96649.59
2023-05-25T14:13:56.116Z,96637.19
2023-05-25T14:16:23.696Z,96641.44
2023-05-25T14:18:51.387Z,96639.00
2023-05-25T14:21:19.088Z,96633.31
2023-05-25T14:23:47.949Z,96629.31
2023-05-25T14:26:15.533Z,96643.25
2023-05-25T14:28:43.271Z,96635.81
2023-05-25T14:31:12.297Z,96628.06
2023-05-25T14:33:42.117Z,96628.97
2023-05-25T14:36:10.531Z,96634.84
2023-05-25T14:38:38.060Z,96637.19
2023-05-25T14:41:06.961Z,96642.91
2023-05-25T14:43:34.918Z,96637.25
2023-05-25T14:46:02.440Z,96631.97
2023-05-25T14:48:30.018Z,96633.81
2023-05-25T14:50:59.111Z,96631.94
2023-05-25T14:53:26.626Z,96621.88
2023-05-25T14:55:54.125Z,96624.03
2023-05-25T14:58:23.002Z,96623.13
2023-05-25T15:00:50.653Z,96642.19
2023-05-25T15:03:19.000Z,96631.97
2023-05-25T15:05:46.789Z,96633.16
2023-05-25T15:08:14.493Z,96642.31
2023-05-25T15:10:42.031Z,96631.59
2023-05-25T15:13:10.817Z,96627.53
2023-05-25T15:15:41.685Z,96620.63
2023-05-25T15:18:09.288Z,96636.66
2023-05-25T15:20:36.873Z,96631.97
2023-05-25T15:23:04.514Z,96626.53
2023-05-25T15:25:35.606Z,96622.56
2023-05-25T15:28:04.186Z,96626.97
2023-05-25T15:30:33.204Z,96621.75
2023-05-25T15:33:02.250Z,96628.50
2023-05-25T15:35:32.264Z,96632.38
2023-05-25T15:38:00.186Z,96634.31
2023-05-25T15:40:27.689Z,96632.31
2023-05-25T15:42:55.219Z,96630.44
2023-05-25T15:45:22.818Z,96629.53
2023-05-25T15:47:50.548Z,96628.63
2023-05-25T15:50:19.474Z,96623.09
2023-05-25T15:52:47.027Z,96621.13
2023-05-25T15:55:14.580Z,96616.03
2023-05-25T15:57:42.099Z,96618.59
2023-05-25T16:00:10.746Z,96619.16
2023-05-25T16:02:38.312Z,96621.63
2023-05-25T16:05:07.181Z,96617.00
2023-05-25T16:07:36.160Z,96615.66
2023-05-25T16:10:03.814Z,96613.41
2023-05-25T16:12:31.319Z,96615.53
2023-05-25T16:14:58.840Z,96620.47
2023-05-25T16:17:26.413Z,96610.66
2023-05-25T16:19:53.961Z,96618.03
2023-05-25T16:22:21.594Z,96614.91
2023-05-25T16:24:50.427Z,96614.81
2023-05-25T16:27:18.015Z,96614.34
2023-05-25T16:29:45.542Z,96619.63
2023-05-25T16:32:13.122Z,96614.47
2023-05-25T16:34:40.780Z,96608.34
2023-05-25T16:37:08.259Z,96619.06
2023-05-25T16:39:35.794Z,96611.16
2023-05-25T16:42:05.008Z,96617.41
2023-05-25T16:44:32.547Z,96606.66
2023-05-25T16:47:00.056Z,96613.25
2023-05-25T16:49:27.581Z,96605.72
2023-05-25T16:51:55.117Z,96615.97
2023-05-25T16:54:22.658Z,96600.56
2023-05-25T16:56:50.172Z,96603.75
2023-05-25T16:59:18.982Z,96607.41
2023-05-25T17:01:46.586Z,96608.19
2023-05-25T17:04:14.122Z,96615.66
2023-05-25T17:06:41.627Z,96602.41
2023-05-25T17:09:11.759Z,96606.06
2023-05-25T17:11:39.318Z,96612.34
2023-05-25T17:14:07.331Z,96606.94
2023-05-25T17:16:36.561Z,96608.09
2023-05-25T17:19:04.126Z,96602.56
2023-05-25T17:21:32.061Z,96608.22
2023-05-25T17:23:59.614Z,96597.00
2023-05-25T17:26:27.132Z,96606.00
2023-05-25T17:28:54.906Z,96602.56
2023-05-25T17:31:22.413Z,96603.97
2023-05-25T17:33:51.286Z,96605.28
2023-05-25T17:36:18.767Z,96602.56
2023-05-25T17:38:46.268Z,96607.53
2023-05-25T17:41:13.741Z,96609.81
2023-05-25T17:43:41.296Z,96606.19
2023-05-25T17:46:08.999Z,96592.66
2023-05-25T17:48:37.008Z,96609.63
2023-05-25T17:51:05.974Z,96612.22
2023-05-25T17:53:33.508Z,96621.88
2023-05-25T17:56:01.065Z,96610.00
2023-05-25T17:58:28.806Z,96614.72
2023-05-25T18:00:56.510Z,96616.72
2023-05-25T18:03:25.736Z,96615.44
2023-05-25T18:05:53.314Z,96620.72
2023-05-25T18:08:22.335Z,96625.38
2023-05-25T18:10:50.251Z,96630.31
2023-05-25T18:13:17.818Z,96630.16
2023-05-25T18:15:45.449Z,96635.03
2023-05-25T18:18:15.576Z,96626.81
2023-05-25T18:20:43.330Z,96634.25
2023-05-25T18:23:13.193Z,96628.97
2023-05-25T18:25:42.181Z,96630.59
2023-05-25T18:28:09.796Z,96637.28
2023-05-25T18:30:37.297Z,96628.00
2023-05-25T18:33:05.010Z,96629.19
2023-05-25T18:35:32.563Z,96628.47
2023-05-25T18:38:00.154Z,96630.94
2023-05-25T18:40:27.694Z,96632.22
2023-05-25T18:42:56.497Z,96629.63
2023-05-25T18:45:24.000Z,96638.00
2023-05-25T18:47:51.725Z,96638.97
2023-05-25T18:50:19.900Z,96636.88
2023-05-25T18:52:50.587Z,96644.31
2023-05-25T18:55:18.370Z,96647.88
2023-05-25T18:57:45.842Z,96653.78
2023-05-25T19:00:15.844Z,96653.16
2023-05-25T19:02:43.407Z,96650.66
2023-05-25T19:05:11.495Z,96649.63
2023-05-25T19:07:54.776Z,96657.19
2023-05-25T19:10:26.362Z,96660.78
2023-05-25T19:12:53.946Z,96666.31
2023-05-25T19:15:22.913Z,96661.69
2023-05-25T19:17:50.704Z,96670.59
2023-05-25T19:20:18.332Z,96672.72
2023-05-25T19:22:46.409Z,96683.63
2023-05-25T19:25:13.938Z,96675.56
2023-05-25T19:27:41.495Z,96681.38
2023-05-25T19:30:09.434Z,96684.66
2023-05-25T19:32:38.311Z,96681.94
2023-05-25T19:35:06.454Z,96688.72
2023-05-25T19:37:33.939Z,96689.31
2023-05-25T19:40:01.668Z,96690.94
2023-05-25T19:42:29.263Z,96685.09
2023-05-25T19:44:57.071Z,96691.81
2023-05-25T19:47:24.751Z,96694.91
2023-05-25T19:49:54.018Z,96698.41
2023-05-25T19:52:21.589Z,96693.25
2023-05-25T19:54:50.737Z,96688.22
2023-05-25T19:57:19.055Z,96702.34
2023-05-25T19:59:46.595Z,96694.44
2023-05-25T20:02:14.153Z,96700.66
2023-05-25T20:04:41.714Z,96701.34
2023-05-25T20:07:10.572Z,96702.28
2023-05-25T20:09:38.877Z,96716.09
2023-05-25T20:12:07.259Z,96712.16
2023-05-25T20:14:34.767Z,96715.59
2023-05-25T20:17:02.349Z,96716.06
2023-05-25T20:19:29.864Z,96720.19
2023-05-25T20:21:57.829Z,96728.00
2023-05-25T20:24:26.680Z,96718.44
2023-05-25T20:26:56.577Z,96729.00
2023-05-25T20:29:24.490Z,96731.88
2023-05-25T20:31:52.575Z,96735.94
2023-05-25T20:34:20.142Z,96732.09
2023-05-25T20:36:47.658Z,96743.44
2023-05-25T20:39:15.905Z,96740.09
2023-05-25T20:41:44.888Z,96738.72
2023-05-25T20:44:14.004Z,96745.75
2023-05-25T20:46:41.712Z,96740.13
2023-05-25T20:49:09.282Z,96745.75
2023-05-25T20:51:36.766Z,96744.13
2023-05-25T20:54:04.298Z,96749.13
2023-05-25T20:56:31.835Z,96750.34
2023-05-25T20:59:00.742Z,96755.25
2023-05-25T21:01:29.263Z,96751.19
2023-05-25T21:03:56.951Z,96753.72
2023-05-25T21:06:24.599Z,96754.50
2023-05-25T21:08:52.952Z,96747.88
2023-05-25T21:11:20.846Z,96757.72
2023-05-25T21:13:48.870Z,96764.50
2023-05-25T21:16:17.790Z,96761.28
2023-05-25T21:18:45.666Z,96770.16
2023-05-25T21:21:14.791Z,96764.97
2023-05-25T21:23:42.346Z,96766.81
2023-05-25T21:26:09.905Z,96768.34
2023-05-25T21:28:37.402Z,96771.59
2023-05-25T21:31:04.938Z,96774.47
2023-05-25T21:33:35.835Z,96775.91
2023-05-25T21:36:03.777Z,96776.94
2023-05-25T21:38:31.289Z,96776.94
2023-05-25T21:40:59.434Z,96779.94
2023-05-25T21:43:27.588Z,96783.25
2023-05-25T21:45:55.102Z,96779.78
2023-05-25T21:48:22.658Z,96779.41
2023-05-25T21:50:52.204Z,96783.16
2023-05-25T21:53:20.075Z,96788.44
2023-05-25T21:55:48.588Z,96792.28
2023-05-25T21:58:18.500Z,96799.22
2023-05-25T22:00:46.242Z,96799.56
2023-05-25T22:03:14.321Z,96794.16
2023-05-25T22:05:42.230Z,96796.22
2023-05-25T22:08:11.236Z,96807.78
2023-05-25T22:10:39.277Z,96800.16
2023-05-25T22:13:07.137Z,96802.03
2023-05-25T22:15:35.267Z,96802.34
2023-05-25T22:18:02.888Z,96797.34
2023-05-25T22:20:30.444Z,96804.38
2023-05-25T22:22:58.030Z,96795.69
2023-05-25T22:25:26.954Z,96797.34
2023-05-25T22:27:54.453Z,96807.06
2023-05-25T22:30:22.182Z,96797.06
2023-05-25T22:32:49.722Z,96804.53
2023-05-25T22:35:17.340Z,96800.41
2023-05-25T22:37:44.832Z,96799.59
2023-05-25T22:40:13.469Z,96803.41
2023-05-25T22:42:43.209Z,96805.59
2023-05-25T22:45:11.370Z,96800.75
2023-05-25T22:47:38.868Z,96788.56
2023-05-25T22:50:07.422Z,96796.75
2023-05-25T22:52:34.928Z,96797.91
2023-05-25T22:55:02.414Z,96795.91
2023-05-25T22:57:30.021Z,96795.22
2023-05-25T22:59:58.852Z,96786.75
2023-05-25T23:02:26.772Z,96798.91
2023-05-25T23:04:54.329Z,96796.41
2023-05-25T23:07:21.879Z,96797.94
2023-05-25T23:09:49.390Z,96796.91
2023-05-25T23:12:16.910Z,96807.25
2023-05-25T23:14:44.867Z,96807.09
2023-05-25T23:17:13.736Z,96814.78
2023-05-25T23:19:41.278Z,96814.75
2023-05-25T23:22:08.778Z,96808.75
2023-05-25T23:24:36.458Z,96807.09
2023-05-25T23:27:05.341Z,96809.28
2023-05-25T23:29:32.837Z,96812.38
2023-05-25T23:32:00.416Z,96813.72
2023-05-25T23:34:29.414Z,96812.06
2023-05-25T23:36:58.203Z,96812.41
2023-05-25T23:39:25.878Z,96805.59
2023-05-25T23:41:53.496Z,96800.75
2023-05-25T23:44:21.624Z,96815.22
2023-05-25T23:46:49.192Z,96813.06
2023-05-25T23:49:16.702Z,96812.84
2023-05-25T23:51:45.608Z,96816.16
2023-05-25T23:54:13.285Z,96820.81
2023-05-25T23:56:40.781Z,96818.66
2023-05-25T23:59:08.339Z,96829.31
